sensor_id;sensor_type;location;lat;lon;timestamp;pressure;altitude;pressure_sealevel;temperature;humidity
36798;BME280;22748;8.426;99.512;2022-10-16T00:01:24;100698.28;;;28.88;68.93
36798;BME280;22748;8.426;99.512;2022-10-16T00:03:58;100702.84;;;28.88;68.93
36798;BME280;22748;8.426;99.512;2022-10-16T00:06:30;100705.28;;;28.89;69.09
36798;BME280;22748;8.426;99.512;2022-10-16T00:09:01;100709.84;;;28.89;69.35
36798;BME280;22748;8.426;99.512;2022-10-16T00:11:31;100704.28;;;28.90;69.12
36798;BME280;22748;8.426;99.512;2022-10-16T00:14:07;100709.84;;;28.89;69.09
36798;BME280;22748;8.426;99.512;2022-10-16T00:16:38;100710.66;;;28.89;69.28
36798;BME280;22748;8.426;99.512;2022-10-16T00:19:11;100716.88;;;28.90;69.50
36798;BME280;22748;8.426;99.512;2022-10-16T00:21:42;100726.78;;;28.89;70.06
36798;BME280;22748;8.426;99.512;2022-10-16T00:24:12;100729.72;;;28.88;69.65
36798;BME280;22748;8.426;99.512;2022-10-16T00:26:43;100737.97;;;28.86;69.60
36798;BME280;22748;8.426;99.512;2022-10-16T00:29:13;100741.72;;;28.85;69.90
36798;BME280;22748;8.426;99.512;2022-10-16T00:31:45;100750.59;;;28.86;69.56
36798;BME280;22748;8.426;99.512;2022-10-16T00:34:19;100749.78;;;28.85;70.02
36798;BME280;22748;8.426;99.512;2022-10-16T00:36:49;100758.66;;;28.86;69.68
36798;BME280;22748;8.426;99.512;2022-10-16T00:39:20;100761.13;;;28.87;69.66
36798;BME280;22748;8.426;99.512;2022-10-16T00:41:50;100752.47;;;28.85;70.03
36798;BME280;22748;8.426;99.512;2022-10-16T00:44:45;100756.16;;;28.84;69.68
36798;BME280;22748;8.426;99.512;2022-10-16T00:47:21;100760.28;;;28.87;69.66
36798;BME280;22748;8.426;99.512;2022-10-16T00:50:00;100765.91;;;28.85;69.86
36798;BME280;22748;8.426;99.512;2022-10-16T00:52:33;100761.13;;;28.87;69.34
36798;BME280;22748;8.426;99.512;2022-10-16T00:55:05;100767.53;;;28.86;69.27
36798;BME280;22748;8.426;99.512;2022-10-16T00:57:37;100783.03;;;28.84;69.18
36798;BME280;22748;8.426;99.512;2022-10-16T01:00:13;100777.66;;;28.84;69.46
36798;BME280;22748;8.426;99.512;2022-10-16T01:02:43;100784.72;;;28.85;69.74
36798;BME280;22748;8.426;99.512;2022-10-16T01:05:16;100780.97;;;28.86;69.50
36798;BME280;22748;8.426;99.512;2022-10-16T01:07:53;100788.00;;;28.87;69.82
36798;BME280;22748;8.426;99.512;2022-10-16T01:10:29;100785.31;;;28.87;69.23
36798;BME280;22748;8.426;99.512;2022-10-16T01:13:03;100785.13;;;28.89;69.78
36798;BME280;22748;8.426;99.512;2022-10-16T01:15:37;100796.91;;;28.88;69.32
36798;BME280;22748;8.426;99.512;2022-10-16T01:18:11;100796.91;;;28.88;69.82
36798;BME280;22748;8.426;99.512;2022-10-16T01:20:52;100804.97;;;28.88;69.54
36798;BME280;22748;8.426;99.512;2022-10-16T01:23:31;100802.47;;;28.86;69.62
36798;BME280;22748;8.426;99.512;2022-10-16T01:26:17;100804.13;;;28.87;69.88
36798;BME280;22748;8.426;99.512;2022-10-16T01:28:55;100814.88;;;28.87;69.28
36798;BME280;22748;8.426;99.512;2022-10-16T01:31:31;100813.25;;;28.86;69.24
36798;BME280;22748;8.426;99.512;2022-10-16T01:34:05;100819.03;;;28.83;69.45
36798;BME280;22748;8.426;99.512;2022-10-16T01:36:40;100819.03;;;28.83;69.31
36798;BME280;22748;8.426;99.512;2022-10-16T01:39:13;100824.41;;;28.83;69.84
36798;BME280;22748;8.426;99.512;2022-10-16T01:41:48;100820.69;;;28.84;69.58
36798;BME280;22748;8.426;99.512;2022-10-16T01:44:28;100822.34;;;28.85;69.62
36798;BME280;22748;8.426;99.512;2022-10-16T01:47:00;100821.31;;;28.86;69.30
36798;BME280;22748;8.426;99.512;2022-10-16T01:49:34;100825.84;;;28.86;69.56
36798;BME280;22748;8.426;99.512;2022-10-16T01:52:08;100821.09;;;28.88;69.87
36798;BME280;22748;8.426;99.512;2022-10-16T01:54:39;100820.88;;;28.89;69.88
36798;BME280;22748;8.426;99.512;2022-10-16T01:57:13;100824.41;;;28.90;69.81
36798;BME280;22748;8.426;99.512;2022-10-16T01:59:48;100828.56;;;28.92;69.71
36798;BME280;22748;8.426;99.512;2022-10-16T02:02:20;100834.56;;;28.95;69.59
36798;BME280;22748;8.426;99.512;2022-10-16T02:04:55;100844.25;;;28.96;69.99
36798;BME280;22748;8.426;99.512;2022-10-16T02:07:29;100845.31;;;28.95;69.96
36798;BME280;22748;8.426;99.512;2022-10-16T02:10:01;100851.72;;;28.93;69.80
36798;BME280;22748;8.426;99.512;2022-10-16T02:12:33;100847.19;;;28.94;69.83
36798;BME280;22748;8.426;99.512;2022-10-16T02:15:09;100858.13;;;28.92;69.44
36798;BME280;22748;8.426;99.512;2022-10-16T02:17:40;100867.00;;;28.93;69.98
36798;BME280;22748;8.426;99.512;2022-10-16T02:20:10;100867.84;;;28.93;69.42
36798;BME280;22748;8.426;99.512;2022-10-16T02:22:42;100866.19;;;28.92;69.60
36798;BME280;22748;8.426;99.512;2022-10-16T02:25:18;100872.59;;;28.91;69.61
36798;BME280;22748;8.426;99.512;2022-10-16T02:27:55;100875.28;;;28.91;69.60
36798;BME280;22748;8.426;99.512;2022-10-16T02:30:32;100874.25;;;28.92;69.35
36798;BME280;22748;8.426;99.512;2022-10-16T02:33:08;100871.16;;;28.96;69.50
36798;BME280;22748;8.426;99.512;2022-10-16T02:35:42;100879.03;;;28.97;69.38
36798;BME280;22748;8.426;99.512;2022-10-16T02:38:15;100875.28;;;28.98;69.12
36798;BME280;22748;8.426;99.512;2022-10-16T02:40:45;100877.78;;;29.00;68.38
36798;BME280;22748;8.426;99.512;2022-10-16T02:43:16;100874.91;;;29.01;68.25
36798;BME280;22748;8.426;99.512;2022-10-16T02:45:47;100882.78;;;29.03;68.41
36798;BME280;22748;8.426;99.512;2022-10-16T02:48:18;100881.09;;;29.02;67.59
36798;BME280;22748;8.426;99.512;2022-10-16T02:50:49;100882.34;;;28.99;67.85
36798;BME280;22748;8.426;99.512;2022-10-16T02:53:20;100890.59;;;28.98;67.47
36798;BME280;22748;8.426;99.512;2022-10-16T02:55:50;100880.25;;;28.95;67.71
36798;BME280;22748;8.426;99.512;2022-10-16T02:58:20;100891.66;;;28.97;67.81
36798;BME280;22748;8.426;99.512;2022-10-16T03:00:52;100896.59;;;29.00;68.21
36798;BME280;22748;8.426;99.512;2022-10-16T03:03:22;100886.47;;;29.02;68.49
36798;BME280;22748;8.426;99.512;2022-10-16T03:05:52;100894.97;;;29.05;68.65
36798;BME280;22748;8.426;99.512;2022-10-16T03:08:22;100892.72;;;29.09;68.52
36798;BME280;22748;8.426;99.512;2022-10-16T03:10:53;100892.72;;;29.09;68.62
36798;BME280;22748;8.426;99.512;2022-10-16T03:13:23;100889.00;;;29.10;68.66
36798;BME280;22748;8.426;99.512;2022-10-16T03:15:56;100886.31;;;29.10;68.24
36798;BME280;22748;8.426;99.512;2022-10-16T03:18:27;100891.50;;;29.11;68.39
36798;BME280;22748;8.426;99.512;2022-10-16T03:20:57;100886.72;;;29.13;68.64
36798;BME280;22748;8.426;99.512;2022-10-16T03:23:27;100886.53;;;29.15;67.99
36798;BME280;22748;8.426;99.512;2022-10-16T03:25:57;100877.22;;;29.18;67.78
36798;BME280;22748;8.426;99.512;2022-10-16T03:28:27;100877.84;;;29.20;67.80
36798;BME280;22748;8.426;99.512;2022-10-16T03:30:58;100870.41;;;29.22;67.50
36798;BME280;22748;8.426;99.512;2022-10-16T03:33:28;100871.00;;;29.24;67.59
36798;BME280;22748;8.426;99.512;2022-10-16T03:35:58;100872.25;;;29.28;67.62
36798;BME280;22748;8.426;99.512;2022-10-16T03:38:28;100872.06;;;29.29;67.73
36798;BME280;22748;8.426;99.512;2022-10-16T03:40:58;100859.63;;;29.28;67.87
36798;BME280;22748;8.426;99.512;2022-10-16T03:43:29;100856.75;;;29.30;66.98
36798;BME280;22748;8.426;99.512;2022-10-16T03:46:00;100847.03;;;29.29;66.61
36798;BME280;22748;8.426;99.512;2022-10-16T03:48:29;100842.25;;;29.31;67.09
36798;BME280;22748;8.426;99.512;2022-10-16T03:51:00;100839.16;;;29.34;66.70
36798;BME280;22748;8.426;99.512;2022-10-16T03:53:31;100840.59;;;29.37;66.88
36798;BME280;22748;8.426;99.512;2022-10-16T03:56:01;100843.91;;;29.39;66.81
36798;BME280;22748;8.426;99.512;2022-10-16T03:58:31;100840.19;;;29.40;66.36
36798;BME280;22748;8.426;99.512;2022-10-16T04:01:02;100832.72;;;29.42;66.29
36798;BME280;22748;8.426;99.512;2022-10-16T04:03:39;100829.84;;;29.43;66.75
36798;BME280;22748;8.426;99.512;2022-10-16T04:06:12;100832.09;;;29.40;66.72
36798;BME280;22748;8.426;99.512;2022-10-16T04:08:43;100826.72;;;29.40;66.62
36798;BME280;22748;8.426;99.512;2022-10-16T04:11:15;100822.59;;;29.44;66.21
36798;BME280;22748;8.426;99.512;2022-10-16T04:13:44;100812.66;;;29.51;66.47
36798;BME280;22748;8.426;99.512;2022-10-16T04:16:22;100799.59;;;29.54;66.05
36798;BME280;22748;8.426;99.512;2022-10-16T04:18:53;100801.66;;;29.59;65.47
36798;BME280;22748;8.426;99.512;2022-10-16T04:21:24;100796.91;;;29.61;65.78
36798;BME280;22748;8.426;99.512;2022-10-16T04:23:55;100783.03;;;29.64;65.45
36798;BME280;22748;8.426;99.512;2022-10-16T04:26:26;100778.47;;;29.65;65.85
36798;BME280;22748;8.426;99.512;2022-10-16T04:28:56;100776.81;;;29.57;66.07
36798;BME280;22748;8.426;99.512;2022-10-16T04:31:29;100774.16;;;29.50;66.18
36798;BME280;22748;8.426;99.512;2022-10-16T04:33:58;100771.44;;;29.57;65.85
36798;BME280;22748;8.426;99.512;2022-10-16T04:36:29;100772.91;;;29.60;66.12
36798;BME280;22748;8.426;99.512;2022-10-16T04:38:59;100761.75;;;29.43;66.24
36798;BME280;22748;8.426;99.512;2022-10-16T04:41:30;100770.25;;;29.53;65.77
36798;BME280;22748;8.426;99.512;2022-10-16T04:44:01;100760.69;;;29.70;65.97
36798;BME280;22748;8.426;99.512;2022-10-16T04:46:34;100761.06;;;29.81;65.60
36798;BME280;22748;8.426;99.512;2022-10-16T04:49:04;100742.44;;;29.86;64.62
36798;BME280;22748;8.426;99.512;2022-10-16T04:51:34;100750.28;;;29.87;64.63
36798;BME280;22748;8.426;99.512;2022-10-16T04:54:03;100739.91;;;29.91;64.63
36798;BME280;22748;8.426;99.512;2022-10-16T04:56:32;100731.41;;;29.94;64.56
36798;BME280;22748;8.426;99.512;2022-10-16T04:59:09;100728.69;;;29.94;64.73
36798;BME280;22748;8.426;99.512;2022-10-16T05:01:40;100723.31;;;29.94;64.92
36798;BME280;22748;8.426;99.512;2022-10-16T05:04:10;100720.63;;;29.94;65.38
36798;BME280;22748;8.426;99.512;2022-10-16T05:06:41;100711.09;;;29.98;64.82
36798;BME280;22748;8.426;99.512;2022-10-16T05:09:12;100704.66;;;29.99;64.63
36798;BME280;22748;8.426;99.512;2022-10-16T05:11:43;100700.91;;;30.00;63.97
36798;BME280;22748;8.426;99.512;2022-10-16T05:14:14;100693.47;;;30.02;63.89
36798;BME280;22748;8.426;99.512;2022-10-16T05:16:46;100692.63;;;30.02;63.67
36798;BME280;22748;8.426;99.512;2022-10-16T05:19:17;100677.91;;;30.04;64.14
36798;BME280;22748;8.426;99.512;2022-10-16T05:21:47;100674.81;;;30.07;64.81
36798;BME280;22748;8.426;99.512;2022-10-16T05:24:18;100662.97;;;30.08;64.21
36798;BME280;22748;8.426;99.512;2022-10-16T05:26:47;100661.97;;;30.03;64.32
36798;BME280;22748;8.426;99.512;2022-10-16T05:29:17;100659.66;;;30.06;64.87
36798;BME280;22748;8.426;99.512;2022-10-16T05:31:52;100657.16;;;30.11;63.91
36798;BME280;22748;8.426;99.512;2022-10-16T05:34:23;100655.25;;;30.19;64.06
36798;BME280;22748;8.426;99.512;2022-10-16T05:36:54;100659.16;;;30.23;64.13
36798;BME280;22748;8.426;99.512;2022-10-16T05:39:25;100655.22;;;30.25;63.76
36798;BME280;22748;8.426;99.512;2022-10-16T05:41:55;100647.75;;;30.27;63.80
36798;BME280;22748;8.426;99.512;2022-10-16T05:44:26;100644.63;;;30.30;63.47
36798;BME280;22748;8.426;99.512;2022-10-16T05:46:56;100646.91;;;30.33;63.51
36798;BME280;22748;8.426;99.512;2022-10-16T05:49:26;100643.53;;;30.38;63.45
36798;BME280;22748;8.426;99.512;2022-10-16T05:51:55;100636.88;;;30.41;63.01
36798;BME280;22748;8.426;99.512;2022-10-16T05:54:24;100635.63;;;30.43;63.10
36798;BME280;22748;8.426;99.512;2022-10-16T05:56:53;100652.41;;;30.45;63.94
36798;BME280;22748;8.426;99.512;2022-10-16T05:59:22;100651.94;;;30.48;65.22
36798;BME280;22748;8.426;99.512;2022-10-16T06:01:52;100657.34;;;30.48;65.99
36798;BME280;22748;8.426;99.512;2022-10-16T06:04:25;100659.66;;;30.45;66.12
36798;BME280;22748;8.426;99.512;2022-10-16T06:06:54;100656.56;;;30.41;66.89
36798;BME280;22748;8.426;99.512;2022-10-16T06:09:27;100655.97;;;30.39;67.19
36798;BME280;22748;8.426;99.512;2022-10-16T06:11:56;100651.84;;;30.37;67.39
36798;BME280;22748;8.426;99.512;2022-10-16T06:14:26;100647.72;;;30.34;67.22
36798;BME280;22748;8.426;99.512;2022-10-16T06:16:56;100646.50;;;30.30;67.58
36798;BME280;22748;8.426;99.512;2022-10-16T06:19:27;100633.25;;;30.28;67.76
36798;BME280;22748;8.426;99.512;2022-10-16T06:21:59;100626.19;;;30.27;67.99
36798;BME280;22748;8.426;99.512;2022-10-16T06:24:29;100621.22;;;30.24;67.49
36798;BME280;22748;8.426;99.512;2022-10-16T06:27:01;100614.41;;;30.22;68.09
36798;BME280;22748;8.426;99.512;2022-10-16T06:29:34;100615.00;;;30.24;68.08
36798;BME280;22748;8.426;99.512;2022-10-16T06:32:03;100613.38;;;30.23;68.35
36798;BME280;22748;8.426;99.512;2022-10-16T06:34:36;100616.28;;;30.21;68.07
36798;BME280;22748;8.426;99.512;2022-10-16T06:37:07;100608.41;;;30.20;68.27
36798;BME280;22748;8.426;99.512;2022-10-16T06:39:37;100620.25;;;30.19;67.82
36798;BME280;22748;8.426;99.512;2022-10-16T06:42:07;100628.31;;;30.19;68.11
36798;BME280;22748;8.426;99.512;2022-10-16T06:44:37;100626.66;;;30.18;68.33
36798;BME280;22748;8.426;99.512;2022-10-16T06:47:07;100654.25;;;30.13;67.88
36798;BME280;22748;8.426;99.512;2022-10-16T06:49:39;100659.66;;;30.06;68.35
36798;BME280;22748;8.426;99.512;2022-10-16T06:52:09;100672.34;;;29.99;68.31
36798;BME280;22748;8.426;99.512;2022-10-16T06:54:39;100673.88;;;29.88;67.81
36798;BME280;22748;8.426;99.512;2022-10-16T06:57:09;100671.19;;;29.82;67.74
36798;BME280;22748;8.426;99.512;2022-10-16T06:59:39;100677.03;;;29.72;67.71
36798;BME280;22748;8.426;99.512;2022-10-16T07:02:09;100666.50;;;29.70;67.32
36798;BME280;22748;8.426;99.512;2022-10-16T07:04:42;100660.69;;;29.73;67.02
36798;BME280;22748;8.426;99.512;2022-10-16T07:07:12;100663.16;;;29.75;66.55
36798;BME280;22748;8.426;99.512;2022-10-16T07:09:42;100656.34;;;29.72;66.80
36798;BME280;22748;8.426;99.512;2022-10-16T07:12:13;100658.19;;;29.72;66.80
36798;BME280;22748;8.426;99.512;2022-10-16T07:14:43;100655.72;;;29.70;66.48
36798;BME280;22748;8.426;99.512;2022-10-16T07:17:14;100657.78;;;29.68;66.31
36798;BME280;22748;8.426;99.512;2022-10-16T07:19:45;100650.13;;;29.65;66.99
36798;BME280;22748;8.426;99.512;2022-10-16T07:22:15;100658.19;;;29.65;66.96
36798;BME280;22748;8.426;99.512;2022-10-16T07:24:46;100650.94;;;29.66;66.72
36798;BME280;22748;8.426;99.512;2022-10-16T07:27:16;100641.03;;;29.60;66.97
36798;BME280;22748;8.426;99.512;2022-10-16T07:29:47;100634.75;;;29.21;68.16
36798;BME280;22748;8.426;99.512;2022-10-16T07:32:19;100633.13;;;29.13;68.25
36798;BME280;22748;8.426;99.512;2022-10-16T07:34:52;100622.19;;;28.95;69.17
36798;BME280;22748;8.426;99.512;2022-10-16T07:37:23;100613.88;;;29.16;68.32
36798;BME280;22748;8.426;99.512;2022-10-16T07:39:54;100606.84;;;29.15;68.29
36798;BME280;22748;8.426;99.512;2022-10-16T07:42:23;100614.72;;;29.10;68.33
36798;BME280;22748;8.426;99.512;2022-10-16T07:44:55;100602.91;;;29.11;68.39
36798;BME280;22748;8.426;99.512;2022-10-16T07:47:25;100602.25;;;29.22;67.84
36798;BME280;22748;8.426;99.512;2022-10-16T07:49:56;100598.16;;;29.00;68.64
36798;BME280;22748;8.426;99.512;2022-10-16T07:52:28;100594.47;;;28.81;68.80
36798;BME280;22748;8.426;99.512;2022-10-16T07:54:58;100597.75;;;29.03;68.43
36798;BME280;22748;8.426;99.512;2022-10-16T07:57:30;100602.09;;;29.10;68.09
36798;BME280;22748;8.426;99.512;2022-10-16T08:00:01;100598.16;;;29.13;68.22
36798;BME280;22748;8.426;99.512;2022-10-16T08:02:31;100602.75;;;28.86;69.57
36798;BME280;22748;8.426;99.512;2022-10-16T08:05:03;100603.41;;;28.68;70.44
36798;BME280;22748;8.426;99.512;2022-10-16T08:07:35;100613.28;;;28.81;69.60
36798;BME280;22748;8.426;99.512;2022-10-16T08:10:05;100602.94;;;28.98;69.73
36798;BME280;22748;8.426;99.512;2022-10-16T08:12:34;100600.44;;;28.96;69.35
36798;BME280;22748;8.426;99.512;2022-10-16T08:15:06;100605.22;;;29.01;69.39
36798;BME280;22748;8.426;99.512;2022-10-16T08:17:35;100603.34;;;29.01;69.94
36798;BME280;22748;8.426;99.512;2022-10-16T08:20:08;100606.03;;;29.01;69.69
36798;BME280;22748;8.426;99.512;2022-10-16T08:22:38;100604.16;;;29.02;69.46
36798;BME280;22748;8.426;99.512;2022-10-16T08:25:08;100604.16;;;29.02;69.54
36798;BME280;22748;8.426;99.512;2022-10-16T08:27:38;100604.81;;;28.90;70.55
36798;BME280;22748;8.426;99.512;2022-10-16T08:30:09;100591.19;;;28.72;71.03
36798;BME280;22748;8.426;99.512;2022-10-16T08:32:40;100595.31;;;28.61;71.06
36798;BME280;22748;8.426;99.512;2022-10-16T08:35:13;100593.88;;;28.72;70.76
36798;BME280;22748;8.426;99.512;2022-10-16T08:37:45;100588.47;;;28.92;70.62
36798;BME280;22748;8.426;99.512;2022-10-16T08:40:19;100591.13;;;29.05;70.44
36798;BME280;22748;8.426;99.512;2022-10-16T08:43:04;100589.88;;;29.08;70.20
36798;BME280;22748;8.426;99.512;2022-10-16T08:45:51;100585.31;;;29.15;69.78
36798;BME280;22748;8.426;99.512;2022-10-16T08:48:30;100587.00;;;29.16;69.91
36798;BME280;22748;8.426;99.512;2022-10-16T08:51:08;100585.13;;;29.17;70.15
36798;BME280;22748;8.426;99.512;2022-10-16T08:53:44;100591.97;;;29.12;70.19
36798;BME280;22748;8.426;99.512;2022-10-16T08:56:16;100597.31;;;29.19;69.86
36798;BME280;22748;8.426;99.512;2022-10-16T08:58:46;100594.88;;;28.91;70.62
36798;BME280;22748;8.426;99.512;2022-10-16T09:01:17;100584.97;;;28.71;71.81
36798;BME280;22748;8.426;99.512;2022-10-16T09:06:50;100591.41;;;28.77;71.32
36798;BME280;22748;8.426;99.512;2022-10-16T09:09:38;100592.59;;;28.95;70.47
36798;BME280;22748;8.426;99.512;2022-10-16T09:12:12;100596.78;;;28.77;70.72
36798;BME280;22748;8.426;99.512;2022-10-16T09:15:04;100597.41;;;28.52;71.79
36798;BME280;22748;8.426;99.512;2022-10-16T09:17:46;100598.41;;;28.38;72.57
36798;BME280;22748;8.426;99.512;2022-10-16T09:20:32;100608.56;;;28.49;71.70
36798;BME280;22748;8.426;99.512;2022-10-16T09:23:15;100611.47;;;28.68;71.24
36798;BME280;22748;8.426;99.512;2022-10-16T09:25:47;100606.06;;;28.88;71.26
36798;BME280;22748;8.426;99.512;2022-10-16T09:28:17;100614.50;;;28.98;70.69
36798;BME280;22748;8.426;99.512;2022-10-16T09:30:48;100614.28;;;29.06;70.28
36798;BME280;22748;8.426;99.512;2022-10-16T09:33:21;100614.72;;;29.10;69.94
36798;BME280;22748;8.426;99.512;2022-10-16T09:35:54;100606.00;;;29.08;69.86
36798;BME280;22748;8.426;99.512;2022-10-16T09:38:29;100618.44;;;29.09;69.76
36798;BME280;22748;8.426;99.512;2022-10-16T09:41:01;100617.41;;;29.10;69.73
36798;BME280;22748;8.426;99.512;2022-10-16T09:43:36;100620.09;;;29.10;69.89
36798;BME280;22748;8.426;99.512;2022-10-16T09:46:24;100626.09;;;29.05;69.88
36798;BME280;22748;8.426;99.512;2022-10-16T09:48:58;100625.47;;;28.97;70.44
36798;BME280;22748;8.426;99.512;2022-10-16T09:51:31;100639.28;;;29.07;70.61
36798;BME280;22748;8.426;99.512;2022-10-16T09:54:15;100637.03;;;29.04;70.18
36798;BME280;22748;8.426;99.512;2022-10-16T09:56:45;100640.78;;;29.03;69.94
36798;BME280;22748;8.426;99.512;2022-10-16T09:59:20;100638.34;;;28.68;70.80
36798;BME280;22748;8.426;99.512;2022-10-16T10:01:53;100633.78;;;28.48;71.98
36798;BME280;22748;8.426;99.512;2022-10-16T10:04:23;100651.16;;;28.66;70.96
36798;BME280;22748;8.426;99.512;2022-10-16T10:06:57;100650.31;;;28.65;70.73
36798;BME280;22748;8.426;99.512;2022-10-16T10:09:32;100654.84;;;28.78;70.24
36798;BME280;22748;8.426;99.512;2022-10-16T10:12:16;100656.53;;;28.73;70.80
36798;BME280;22748;8.426;99.512;2022-10-16T10:14:47;100658.97;;;28.87;70.05
36798;BME280;22748;8.426;99.512;2022-10-16T10:17:19;100659.00;;;28.94;69.86
36798;BME280;22748;8.426;99.512;2022-10-16T10:19:51;100657.13;;;28.95;69.75
36798;BME280;22748;8.426;99.512;2022-10-16T10:22:27;100662.69;;;29.00;70.20
36798;BME280;22748;8.426;99.512;2022-10-16T10:28:35;100674.09;;;28.88;70.43
36798;BME280;22748;8.426;99.512;2022-10-16T10:31:17;100670.97;;;28.65;71.17
36798;BME280;22748;8.426;99.512;2022-10-16T10:33:58;100675.09;;;28.67;71.27
36798;BME280;22748;8.426;99.512;2022-10-16T10:36:35;100676.16;;;28.80;70.74
36798;BME280;22748;8.426;99.512;2022-10-16T10:39:09;100685.44;;;28.90;70.87
36798;BME280;22748;8.426;99.512;2022-10-16T10:42:00;100690.00;;;28.97;70.12
36798;BME280;22748;8.426;99.512;2022-10-16T10:44:51;100685.88;;;29.01;70.40
36798;BME280;22748;8.426;99.512;2022-10-16T10:47:35;100694.56;;;29.03;69.79
36798;BME280;22748;8.426;99.512;2022-10-16T10:50:17;100703.22;;;29.05;70.30
36798;BME280;22748;8.426;99.512;2022-10-16T10:52:59;100699.50;;;29.06;70.16
36798;BME280;22748;8.426;99.512;2022-10-16T10:55:41;100689.38;;;29.08;70.79
36798;BME280;22748;8.426;99.512;2022-10-16T10:58:31;100698.25;;;29.08;70.17
36798;BME280;22748;8.426;99.512;2022-10-16T11:01:09;100698.88;;;29.04;70.65
36798;BME280;22748;8.426;99.512;2022-10-16T11:03:54;100696.81;;;29.06;70.50
36798;BME280;22748;8.426;99.512;2022-10-16T11:06:30;100711.91;;;29.07;70.52
36798;BME280;22748;8.426;99.512;2022-10-16T11:09:11;100712.75;;;29.07;70.53
36798;BME280;22748;8.426;99.512;2022-10-16T11:11:46;100706.53;;;29.07;70.29
36798;BME280;22748;8.426;99.512;2022-10-16T11:14:21;100716.25;;;29.08;70.17
36798;BME280;22748;8.426;99.512;2022-10-16T11:16:58;100723.50;;;29.07;70.47
36798;BME280;22748;8.426;99.512;2022-10-16T11:19:37;100720.81;;;29.07;70.62
36798;BME280;22748;8.426;99.512;2022-10-16T11:22:14;100726.00;;;29.09;70.47
36798;BME280;22748;8.426;99.512;2022-10-16T11:24:51;100726.00;;;29.09;70.55
36798;BME280;22748;8.426;99.512;2022-10-16T11:27:27;100729.69;;;29.08;70.34
36798;BME280;22748;8.426;99.512;2022-10-16T11:30:05;100727.41;;;29.05;70.30
36798;BME280;22748;8.426;99.512;2022-10-16T11:32:50;100727.63;;;29.03;70.23
36798;BME280;22748;8.426;99.512;2022-10-16T11:35:29;100724.72;;;29.05;70.62
36798;BME280;22748;8.426;99.512;2022-10-16T11:38:04;100726.38;;;29.06;70.27
36798;BME280;22748;8.426;99.512;2022-10-16T11:40:41;100735.06;;;29.08;70.34
36798;BME280;22748;8.426;99.512;2022-10-16T11:43:19;100735.06;;;29.08;69.92
36798;BME280;22748;8.426;99.512;2022-10-16T11:45:55;100735.06;;;29.08;69.79
36798;BME280;22748;8.426;99.512;2022-10-16T11:48:33;100731.56;;;29.07;69.72
36798;BME280;22748;8.426;99.512;2022-10-16T11:51:11;100741.47;;;29.07;70.28
36798;BME280;22748;8.426;99.512;2022-10-16T11:53:49;100740.47;;;29.08;70.06
36798;BME280;22748;8.426;99.512;2022-10-16T11:56:23;100749.53;;;29.07;69.97
36798;BME280;22748;8.426;99.512;2022-10-16T11:58:58;100756.59;;;29.08;69.89
36798;BME280;22748;8.426;99.512;2022-10-16T12:01:36;100759.28;;;29.08;70.06
36798;BME280;22748;8.426;99.512;2022-10-16T12:04:18;100768.38;;;29.07;70.00
36798;BME280;22748;8.426;99.512;2022-10-16T12:06:55;100763.63;;;29.09;69.95
36798;BME280;22748;8.426;99.512;2022-10-16T12:09:30;100773.53;;;29.08;70.08
36798;BME280;22748;8.426;99.512;2022-10-16T12:12:01;100766.31;;;29.09;70.13
36798;BME280;22748;8.426;99.512;2022-10-16T12:14:37;100773.75;;;29.07;70.25
36798;BME280;22748;8.426;99.512;2022-10-16T12:17:24;100773.13;;;29.05;70.57
36798;BME280;22748;8.426;99.512;2022-10-16T12:20:20;100783.88;;;29.05;70.66
36798;BME280;22748;8.426;99.512;2022-10-16T12:22:53;100787.19;;;29.07;70.27
36798;BME280;22748;8.426;99.512;2022-10-16T12:25:27;100790.53;;;29.09;70.31
36798;BME280;22748;8.426;99.512;2022-10-16T12:28:01;100793.22;;;29.09;70.36
36798;BME280;22748;8.426;99.512;2022-10-16T12:30:35;100799.22;;;29.11;70.14
36798;BME280;22748;8.426;99.512;2022-10-16T12:33:16;100806.28;;;29.12;70.46
36798;BME280;22748;8.426;99.512;2022-10-16T12:35:52;100801.72;;;29.12;70.45
36798;BME280;22748;8.426;99.512;2022-10-16T12:38:28;100809.59;;;29.14;70.35
36798;BME280;22748;8.426;99.512;2022-10-16T12:41:02;100812.91;;;29.16;70.23
36798;BME280;22748;8.426;99.512;2022-10-16T12:43:40;100814.97;;;29.14;69.94
36798;BME280;22748;8.426;99.512;2022-10-16T12:46:34;100817.66;;;29.14;69.90
36798;BME280;22748;8.426;99.512;2022-10-16T12:49:30;100827.34;;;29.15;70.33
36798;BME280;22748;8.426;99.512;2022-10-16T12:52:02;100827.34;;;29.15;70.35
36798;BME280;22748;8.426;99.512;2022-10-16T12:54:36;100834.41;;;29.16;70.06
36798;BME280;22748;8.426;99.512;2022-10-16T12:57:32;100837.50;;;29.13;70.00
36798;BME280;22748;8.426;99.512;2022-10-16T13:00:10;100836.47;;;29.14;69.96
36798;BME280;22748;8.426;99.512;2022-10-16T13:05:44;100846.38;;;29.13;69.96
36798;BME280;22748;8.426;99.512;2022-10-16T13:08:44;100854.69;;;29.12;70.38
36798;BME280;22748;8.426;99.512;2022-10-16T13:11:26;100856.31;;;29.13;70.17
36798;BME280;22748;8.426;99.512;2022-10-16T13:14:25;100862.50;;;29.13;70.34
36798;BME280;22748;8.426;99.512;2022-10-16T13:17:06;100863.13;;;29.16;70.49
36798;BME280;22748;8.426;99.512;2022-10-16T13:19:44;100871.22;;;29.16;70.13
36798;BME280;22748;8.426;99.512;2022-10-16T13:22:24;100866.69;;;29.16;70.19
36798;BME280;22748;8.426;99.512;2022-10-16T13:25:10;100873.06;;;29.15;70.04
36798;BME280;22748;8.426;99.512;2022-10-16T13:27:54;100881.97;;;29.16;70.02
36798;BME280;22748;8.426;99.512;2022-10-16T13:30:26;100887.16;;;29.17;70.57
36798;BME280;22748;8.426;99.512;2022-10-16T13:33:00;100884.88;;;29.14;70.18
36798;BME280;22748;8.426;99.512;2022-10-16T13:35:33;100884.03;;;29.13;70.29